sensor_id;sensor_type;location;lat;lon;timestamp;pressure;altitude;pressure_sealevel;temperature;humidity
19286;BME280;9776;50.798;6.430;2023-02-22T00:01:32;100087.81;;;8.79;71.77
19286;BME280;9776;50.798;6.430;2023-02-22T00:04:01;100090.44;;;8.79;71.72
19286;BME280;9776;50.798;6.430;2023-02-22T00:06:28;100082.56;;;8.79;71.64
19286;BME280;9776;50.798;6.430;2023-02-22T00:08:55;100084.50;;;8.77;71.41
19286;BME280;9776;50.798;6.430;2023-02-22T00:11:24;100075.22;;;8.73;71.35
19286;BME280;9776;50.798;6.430;2023-02-22T00:13:51;100075.97;;;8.66;71.50
19286;BME280;9776;50.798;6.430;2023-02-22T00:16:22;100077.03;;;8.63;71.27
19286;BME280;9776;50.798;6.430;2023-02-22T00:18:50;100076.91;;;8.65;71.17
19286;BME280;9776;50.798;6.430;2023-02-22T00:21:17;100070.56;;;8.57;71.10
19286;BME280;9776;50.798;6.430;2023-02-22T00:23:45;100071.41;;;8.58;70.95
19286;BME280;9776;50.798;6.430;2023-02-22T00:26:14;100078.59;;;8.56;71.17
19286;BME280;9776;50.798;6.430;2023-02-22T00:28:44;100067.69;;;8.51;70.85
19286;BME280;9776;50.798;6.430;2023-02-22T00:31:11;100070.34;;;8.41;70.95
19286;BME280;9776;50.798;6.430;2023-02-22T00:33:39;100065.63;;;8.35;70.97
19286;BME280;9776;50.798;6.430;2023-02-22T00:36:07;100073.81;;;8.32;70.97
19286;BME280;9776;50.798;6.430;2023-02-22T00:38:34;100061.34;;;8.25;70.92
19286;BME280;9776;50.798;6.430;2023-02-22T00:41:01;100054.19;;;8.08;71.01
19286;BME280;9776;50.798;6.430;2023-02-22T00:43:27;100058.19;;;7.92;71.38
19286;BME280;9776;50.798;6.430;2023-02-22T00:45:55;100053.22;;;7.89;71.32
19286;BME280;9776;50.798;6.430;2023-02-22T00:48:22;100053.22;;;7.89;71.25
19286;BME280;9776;50.798;6.430;2023-02-22T00:50:49;100052.38;;;7.89;70.92
19286;BME280;9776;50.798;6.430;2023-02-22T00:53:20;100050.44;;;7.91;70.89
19286;BME280;9776;50.798;6.430;2023-02-22T00:55:47;100047.28;;;7.87;70.51
19286;BME280;9776;50.798;6.430;2023-02-22T00:58:13;100050.31;;;7.83;70.70
19286;BME280;9776;50.798;6.430;2023-02-22T01:00:41;100039.38;;;7.78;70.57
19286;BME280;9776;50.798;6.430;2023-02-22T01:03:14;100034.97;;;7.78;70.47
19286;BME280;9776;50.798;6.430;2023-02-22T01:05:41;100036.59;;;7.79;70.58
19286;BME280;9776;50.798;6.430;2023-02-22T01:08:09;100040.63;;;7.74;70.55
19286;BME280;9776;50.798;6.430;2023-02-22T01:10:37;100041.44;;;7.65;70.73
19286;BME280;9776;50.798;6.430;2023-02-22T01:13:06;100033.44;;;7.66;70.69
19286;BME280;9776;50.798;6.430;2023-02-22T01:15:37;100032.50;;;7.67;70.57
19286;BME280;9776;50.798;6.430;2023-02-22T01:18:04;100035.22;;;7.66;70.51
19286;BME280;9776;50.798;6.430;2023-02-22T01:20:33;100034.94;;;7.59;70.73
19286;BME280;9776;50.798;6.430;2023-02-22T01:23:01;100027.34;;;7.56;70.57
19286;BME280;9776;50.798;6.430;2023-02-22T01:25:31;100031.22;;;7.52;70.52
19286;BME280;9776;50.798;6.430;2023-02-22T01:27:59;100032.88;;;7.43;70.61
19286;BME280;9776;50.798;6.430;2023-02-22T01:30:29;100028.00;;;7.39;70.50
19286;BME280;9776;50.798;6.430;2023-02-22T01:32:57;100034.78;;;7.32;70.56
19286;BME280;9776;50.798;6.430;2023-02-22T01:35:26;100033.94;;;7.22;70.49
19286;BME280;9776;50.798;6.430;2023-02-22T01:37:54;100031.47;;;7.20;70.63
19286;BME280;9776;50.798;6.430;2023-02-22T01:40:26;100029.25;;;7.25;70.56
19286;BME280;9776;50.798;6.430;2023-02-22T01:42:54;100022.47;;;7.23;70.35
19286;BME280;9776;50.798;6.430;2023-02-22T01:45:42;100021.34;;;7.16;70.45
19286;BME280;9776;50.798;6.430;2023-02-22T01:48:14;100018.44;;;7.19;70.43
19286;BME280;9776;50.798;6.430;2023-02-22T01:50:44;100022.47;;;7.23;70.41
19286;BME280;9776;50.798;6.430;2023-02-22T01:53:16;100015.44;;;7.23;70.37
19286;BME280;9776;50.798;6.430;2023-02-22T01:55:43;100012.41;;;7.18;70.45
19286;BME280;9776;50.798;6.430;2023-02-22T01:58:12;100004.78;;;7.15;70.46
19286;BME280;9776;50.798;6.430;2023-02-22T02:00:40;100008.22;;;7.16;70.44
19286;BME280;9776;50.798;6.430;2023-02-22T02:03:11;100006.44;;;7.16;70.56
19286;BME280;9776;50.798;6.430;2023-02-22T02:05:41;100008.66;;;7.21;70.57
19286;BME280;9776;50.798;6.430;2023-02-22T02:08:15;99994.84;;;7.28;70.23
19286;BME280;9776;50.798;6.430;2023-02-22T02:10:45;100005.91;;;7.22;70.37
19286;BME280;9776;50.798;6.430;2023-02-22T02:13:13;99997.44;;;7.19;70.48
19286;BME280;9776;50.798;6.430;2023-02-22T02:15:41;100007.56;;;7.23;70.43
19286;BME280;9776;50.798;6.430;2023-02-22T02:18:09;100002.88;;;7.27;70.48
19286;BME280;9776;50.798;6.430;2023-02-22T02:20:43;100001.19;;;7.16;70.67
19286;BME280;9776;50.798;6.430;2023-02-22T02:23:36;99995.66;;;7.10;70.66
19286;BME280;9776;50.798;6.430;2023-02-22T02:29:43;99989.59;;;7.09;70.57
19286;BME280;9776;50.798;6.430;2023-02-22T02:32:20;99989.72;;;7.08;70.65
19286;BME280;9776;50.798;6.430;2023-02-22T02:34:50;99983.78;;;7.06;70.82
19286;BME280;9776;50.798;6.430;2023-02-22T02:37:26;99986.50;;;7.04;70.79
19286;BME280;9776;50.798;6.430;2023-02-22T02:40:02;99988.16;;;6.96;71.07
19286;BME280;9776;50.798;6.430;2023-02-22T02:42:39;99980.81;;;6.80;71.34
19286;BME280;9776;50.798;6.430;2023-02-22T02:45:11;99981.75;;;6.69;71.60
19286;BME280;9776;50.798;6.430;2023-02-22T02:47:45;99978.69;;;6.64;71.51
19286;BME280;9776;50.798;6.430;2023-02-22T02:50:15;99970.91;;;6.53;71.96
19286;BME280;9776;50.798;6.430;2023-02-22T02:52:44;99979.00;;;6.41;72.23
19286;BME280;9776;50.798;6.430;2023-02-22T02:55:12;99979.66;;;6.33;72.45
19286;BME280;9776;50.798;6.430;2023-02-22T02:57:39;99984.72;;;6.25;72.63
19286;BME280;9776;50.798;6.430;2023-02-22T03:00:08;99980.16;;;6.17;72.84
19286;BME280;9776;50.798;6.430;2023-02-22T03:02:57;99977.91;;;6.13;72.75
19286;BME280;9776;50.798;6.430;2023-02-22T03:05:43;99982.53;;;6.00;72.87
19286;BME280;9776;50.798;6.430;2023-02-22T03:08:20;99984.44;;;5.98;73.14
19286;BME280;9776;50.798;6.430;2023-02-22T03:10:55;99984.16;;;6.01;73.14
19286;BME280;9776;50.798;6.430;2023-02-22T03:13:30;99991.25;;;6.10;72.97
19286;BME280;9776;50.798;6.430;2023-02-22T03:16:06;99984.81;;;6.14;72.76
19286;BME280;9776;50.798;6.430;2023-02-22T03:18:44;99987.00;;;6.09;72.85
19286;BME280;9776;50.798;6.430;2023-02-22T03:21:18;99989.66;;;6.18;72.65
19286;BME280;9776;50.798;6.430;2023-02-22T03:23:50;99984.59;;;6.26;72.65
19286;BME280;9776;50.798;6.430;2023-02-22T03:26:22;99983.63;;;6.27;72.65
19286;BME280;9776;50.798;6.430;2023-02-22T03:28:52;99990.97;;;6.34;72.65
19286;BME280;9776;50.798;6.430;2023-02-22T03:31:23;99985.59;;;6.35;72.52
19286;BME280;9776;50.798;6.430;2023-02-22T03:33:55;99990.72;;;6.37;72.72
19286;BME280;9776;50.798;6.430;2023-02-22T03:36:25;99988.63;;;6.31;72.74
19286;BME280;9776;50.798;6.430;2023-02-22T03:38:54;99997.34;;;6.10;73.16
19286;BME280;9776;50.798;6.430;2023-02-22T03:41:24;99996.31;;;6.02;73.49
19286;BME280;9776;50.798;6.430;2023-02-22T03:43:54;99988.72;;;5.99;73.47
19286;BME280;9776;50.798;6.430;2023-02-22T03:46:25;99985.34;;;6.08;73.20
19286;BME280;9776;50.798;6.430;2023-02-22T03:48:59;99977.38;;;6.19;72.90
19286;BME280;9776;50.798;6.430;2023-02-22T03:51:27;99984.09;;;6.12;72.82
19286;BME280;9776;50.798;6.430;2023-02-22T03:53:55;99982.28;;;6.03;72.95
19286;BME280;9776;50.798;6.430;2023-02-22T03:56:25;99980.16;;;5.97;72.96
19286;BME280;9776;50.798;6.430;2023-02-22T03:59:00;99976.53;;;5.88;73.11
19286;BME280;9776;50.798;6.430;2023-02-22T04:01:28;99973.41;;;5.83;73.17
19286;BME280;9776;50.798;6.430;2023-02-22T04:03:56;99982.31;;;5.92;73.07
19286;BME280;9776;50.798;6.430;2023-02-22T04:06:22;99979.97;;;5.89;72.80
19286;BME280;9776;50.798;6.430;2023-02-22T04:08:49;99975.06;;;5.84;72.86
19286;BME280;9776;50.798;6.430;2023-02-22T04:11:16;99977.38;;;5.89;72.74
19286;BME280;9776;50.798;6.430;2023-02-22T04:13:43;99980.78;;;5.89;72.66
19286;BME280;9776;50.798;6.430;2023-02-22T04:16:10;99970.06;;;5.92;72.52
19286;BME280;9776;50.798;6.430;2023-02-22T04:18:37;99973.25;;;5.96;72.33
19286;BME280;9776;50.798;6.430;2023-02-22T04:21:05;99969.28;;;6.01;72.10
19286;BME280;9776;50.798;6.430;2023-02-22T04:23:33;99966.56;;;6.03;71.89
19286;BME280;9776;50.798;6.430;2023-02-22T04:26:00;99963.53;;;6.07;71.76
19286;BME280;9776;50.798;6.430;2023-02-22T04:28:27;99963.34;;;5.99;71.80
19286;BME280;9776;50.798;6.430;2023-02-22T04:30:54;99956.41;;;5.89;72.01
19286;BME280;9776;50.798;6.430;2023-02-22T04:33:21;99954.50;;;5.91;71.96
19286;BME280;9776;50.798;6.430;2023-02-22T04:35:47;99952.31;;;5.96;71.75
19286;BME280;9776;50.798;6.430;2023-02-22T04:38:17;99945.59;;;6.03;71.62
19286;BME280;9776;50.798;6.430;2023-02-22T04:40:44;99941.06;;;6.05;71.47
19286;BME280;9776;50.798;6.430;2023-02-22T04:43:11;99941.06;;;6.05;71.42
19286;BME280;9776;50.798;6.430;2023-02-22T04:45:37;99934.63;;;5.88;71.67
19286;BME280;9776;50.798;6.430;2023-02-22T04:48:04;99933.44;;;5.60;72.24
19286;BME280;9776;50.798;6.430;2023-02-22T04:50:31;99939.88;;;5.36;72.94
19286;BME280;9776;50.798;6.430;2023-02-22T04:52:57;99944.72;;;5.08;73.30
19286;BME280;9776;50.798;6.430;2023-02-22T04:55:26;99951.44;;;4.90;73.94
19286;BME280;9776;50.798;6.430;2023-02-22T04:57:53;99949.91;;;4.77;74.09
19286;BME280;9776;50.798;6.430;2023-02-22T05:00:20;99948.72;;;4.81;73.82
19286;BME280;9776;50.798;6.430;2023-02-22T05:02:47;99941.06;;;5.00;73.47
19286;BME280;9776;50.798;6.430;2023-02-22T05:05:15;99938.41;;;5.11;72.76
19286;BME280;9776;50.798;6.430;2023-02-22T05:07:43;99935.03;;;5.20;72.61
19286;BME280;9776;50.798;6.430;2023-02-22T05:10:10;99937.63;;;5.31;71.95
19286;BME280;9776;50.798;6.430;2023-02-22T05:12:38;99936.88;;;5.40;71.77
19286;BME280;9776;50.798;6.430;2023-02-22T05:15:06;99922.59;;;5.44;71.43
19286;BME280;9776;50.798;6.430;2023-02-22T05:17:33;99919.03;;;5.45;71.22
19286;BME280;9776;50.798;6.430;2023-02-22T05:20:01;99922.06;;;5.50;71.26
19286;BME280;9776;50.798;6.430;2023-02-22T05:22:28;99920.03;;;5.54;71.00
19286;BME280;9776;50.798;6.430;2023-02-22T05:24:55;99917.97;;;5.57;70.83
19286;BME280;9776;50.798;6.430;2023-02-22T05:27:22;99919.41;;;5.61;70.79
19286;BME280;9776;50.798;6.430;2023-02-22T05:29:50;99907.97;;;5.62;70.57
19286;BME280;9776;50.798;6.430;2023-02-22T05:32:17;99908.75;;;5.53;70.73
19286;BME280;9776;50.798;6.430;2023-02-22T05:34:44;99906.47;;;5.49;70.85
19286;BME280;9776;50.798;6.430;2023-02-22T05:37:10;99902.22;;;5.48;70.82
19286;BME280;9776;50.798;6.430;2023-02-22T05:39:37;99902.09;;;5.49;70.65
19286;BME280;9776;50.798;6.430;2023-02-22T05:42:04;99895.72;;;5.42;70.71
19286;BME280;9776;50.798;6.430;2023-02-22T05:44:30;99900.22;;;5.40;70.68
19286;BME280;9776;50.798;6.430;2023-02-22T05:46:59;99890.59;;;5.41;70.59
19286;BME280;9776;50.798;6.430;2023-02-22T05:49:25;99888.81;;;5.41;70.49
19286;BME280;9776;50.798;6.430;2023-02-22T05:51:52;99884.53;;;5.40;70.49
19286;BME280;9776;50.798;6.430;2023-02-22T05:54:20;99885.03;;;5.34;70.59
19286;BME280;9776;50.798;6.430;2023-02-22T05:56:46;99886.84;;;5.34;70.52
19286;BME280;9776;50.798;6.430;2023-02-22T05:59:13;99886.69;;;5.35;70.48
19286;BME280;9776;50.798;6.430;2023-02-22T06:01:40;99877.00;;;5.26;70.55
19286;BME280;9776;50.798;6.430;2023-02-22T06:04:08;99873.44;;;5.27;70.58
19286;BME280;9776;50.798;6.430;2023-02-22T06:06:35;99870.81;;;5.27;70.38
19286;BME280;9776;50.798;6.430;2023-02-22T06:09:02;99872.59;;;5.27;70.46
19286;BME280;9776;50.798;6.430;2023-02-22T06:11:29;99872.00;;;5.23;70.54
19286;BME280;9776;50.798;6.430;2023-02-22T06:13:55;99870.63;;;5.19;70.56
19286;BME280;9776;50.798;6.430;2023-02-22T06:16:22;99870.94;;;5.05;70.87
19286;BME280;9776;50.798;6.430;2023-02-22T06:18:49;99870.66;;;5.08;70.78
19286;BME280;9776;50.798;6.430;2023-02-22T06:21:17;99871.66;;;4.96;71.03
19286;BME280;9776;50.798;6.430;2023-02-22T06:23:44;99873.00;;;4.90;71.12
19286;BME280;9776;50.798;6.430;2023-02-22T06:26:10;99869.91;;;4.85;71.16
19286;BME280;9776;50.798;6.430;2023-02-22T06:28:37;99872.06;;;4.80;71.37
19286;BME280;9776;50.798;6.430;2023-02-22T06:31:04;99865.97;;;4.91;71.19
19286;BME280;9776;50.798;6.430;2023-02-22T06:33:31;99870.25;;;4.92;70.82
19286;BME280;9776;50.798;6.430;2023-02-22T06:35:57;99869.06;;;4.96;70.89
19286;BME280;9776;50.798;6.430;2023-02-22T06:38:26;99865.94;;;5.02;70.61
19286;BME280;9776;50.798;6.430;2023-02-22T06:40:54;99866.13;;;5.10;70.48
19286;BME280;9776;50.798;6.430;2023-02-22T06:43:21;99864.91;;;5.14;70.21
19286;BME280;9776;50.798;6.430;2023-02-22T06:45:48;99865.38;;;5.19;70.20
19286;BME280;9776;50.798;6.430;2023-02-22T06:48:15;99857.41;;;5.21;70.14
19286;BME280;9776;50.798;6.430;2023-02-22T06:50:42;99857.16;;;5.24;70.02
19286;BME280;9776;50.798;6.430;2023-02-22T06:53:09;99857.22;;;5.33;69.92
19286;BME280;9776;50.798;6.430;2023-02-22T06:55:37;99856.72;;;5.39;69.78
19286;BME280;9776;50.798;6.430;2023-02-22T06:58:04;99860.72;;;5.43;69.72
19286;BME280;9776;50.798;6.430;2023-02-22T07:00:31;99856.75;;;5.49;69.77
19286;BME280;9776;50.798;6.430;2023-02-22T07:02:59;99862.06;;;5.58;69.54
19286;BME280;9776;50.798;6.430;2023-02-22T07:05:26;99858.53;;;5.69;69.50
19286;BME280;9776;50.798;6.430;2023-02-22T07:07:54;99855.53;;;5.73;69.38
19286;BME280;9776;50.798;6.430;2023-02-22T07:10:23;99856.66;;;5.81;69.47
19286;BME280;9776;50.798;6.430;2023-02-22T07:12:52;99857.50;;;5.81;69.40
19286;BME280;9776;50.798;6.430;2023-02-22T07:15:20;99856.22;;;5.76;69.84
19286;BME280;9776;50.798;6.430;2023-02-22T07:17:48;99849.78;;;5.80;69.72
19286;BME280;9776;50.798;6.430;2023-02-22T07:20:15;99850.41;;;5.93;69.47
19286;BME280;9776;50.798;6.430;2023-02-22T07:22:41;99849.63;;;6.02;69.28
19286;BME280;9776;50.798;6.430;2023-02-22T07:25:09;99851.44;;;6.11;68.99
19286;BME280;9776;50.798;6.430;2023-02-22T07:27:37;99845.69;;;6.17;69.09
19286;BME280;9776;50.798;6.430;2023-02-22T07:30:07;99846.78;;;6.24;68.89
19286;BME280;9776;50.798;6.430;2023-02-22T07:32:34;99851.91;;;6.25;69.06
19286;BME280;9776;50.798;6.430;2023-02-22T07:35:00;99848.03;;;6.29;69.07
19286;BME280;9776;50.798;6.430;2023-02-22T07:37:28;99842.16;;;6.37;68.99
19286;BME280;9776;50.798;6.430;2023-02-22T07:39:55;99853.28;;;6.20;69.44
19286;BME280;9776;50.798;6.430;2023-02-22T07:42:22;99848.94;;;6.09;69.87
19286;BME280;9776;50.798;6.430;2023-02-22T07:44:48;99849.88;;;5.99;70.25
19286;BME280;9776;50.798;6.430;2023-02-22T07:47:16;99847.53;;;5.96;70.48
19286;BME280;9776;50.798;6.430;2023-02-22T07:49:45;99845.63;;;6.07;70.25
19286;BME280;9776;50.798;6.430;2023-02-22T07:52:11;99849.72;;;6.31;70.01
19286;BME280;9776;50.798;6.430;2023-02-22T07:54:38;99838.16;;;6.52;69.37
19286;BME280;9776;50.798;6.430;2023-02-22T07:57:05;99846.47;;;6.76;68.85
19286;BME280;9776;50.798;6.430;2023-02-22T07:59:32;99840.56;;;6.94;68.71
19286;BME280;9776;50.798;6.430;2023-02-22T08:01:59;99839.31;;;7.17;68.54
19286;BME280;9776;50.798;6.430;2023-02-22T08:04:27;99843.44;;;7.38;68.17
19286;BME280;9776;50.798;6.430;2023-02-22T08:06:54;99839.94;;;7.57;68.00
19286;BME280;9776;50.798;6.430;2023-02-22T08:09:20;99833.66;;;7.77;67.67
19286;BME280;9776;50.798;6.430;2023-02-22T08:11:47;99831.91;;;7.95;67.72
19286;BME280;9776;50.798;6.430;2023-02-22T08:14:15;99826.56;;;8.15;67.52
19286;BME280;9776;50.798;6.430;2023-02-22T08:16:42;99825.13;;;8.30;67.23
19286;BME280;9776;50.798;6.430;2023-02-22T08:19:09;99822.31;;;8.41;67.04
19286;BME280;9776;50.798;6.430;2023-02-22T08:21:37;99828.84;;;8.54;66.76
19286;BME280;9776;50.798;6.430;2023-02-22T08:24:04;99822.88;;;8.62;67.06
19286;BME280;9776;50.798;6.430;2023-02-22T08:26:31;99832.19;;;8.57;67.16
19286;BME280;9776;50.798;6.430;2023-02-22T08:28:58;99829.94;;;8.34;67.80
19286;BME280;9776;50.798;6.430;2023-02-22T08:31:24;99816.28;;;8.31;68.06
19286;BME280;9776;50.798;6.430;2023-02-22T08:33:51;99820.06;;;8.46;67.91
19286;BME280;9776;50.798;6.430;2023-02-22T08:36:18;99816.72;;;8.71;67.59
19286;BME280;9776;50.798;6.430;2023-02-22T08:38:46;99819.25;;;8.98;67.30
19286;BME280;9776;50.798;6.430;2023-02-22T08:41:13;99826.00;;;9.19;66.95
19286;BME280;9776;50.798;6.430;2023-02-22T08:43:40;99825.00;;;9.37;66.59
19286;BME280;9776;50.798;6.430;2023-02-22T08:46:07;99819.69;;;9.55;66.38
19286;BME280;9776;50.798;6.430;2023-02-22T08:48:34;99826.88;;;9.79;65.99
19286;BME280;9776;50.798;6.430;2023-02-22T08:51:00;99823.72;;;10.01;65.64
19286;BME280;9776;50.798;6.430;2023-02-22T08:53:27;99820.03;;;10.19;65.26
19286;BME280;9776;50.798;6.430;2023-02-22T08:55:55;99819.78;;;10.39;64.82
19286;BME280;9776;50.798;6.430;2023-02-22T08:58:22;99818.53;;;10.59;64.48
19286;BME280;9776;50.798;6.430;2023-02-22T09:00:49;99814.59;;;10.79;63.81
19286;BME280;9776;50.798;6.430;2023-02-22T09:03:16;99814.59;;;10.95;63.57
19286;BME280;9776;50.798;6.430;2023-02-22T09:05:43;99817.22;;;11.11;63.20
19286;BME280;9776;50.798;6.430;2023-02-22T09:08:10;99811.97;;;11.27;62.42
19286;BME280;9776;50.798;6.430;2023-02-22T09:10:37;99808.97;;;11.38;62.01
19286;BME280;9776;50.798;6.430;2023-02-22T09:13:06;99803.66;;;11.55;61.59
19286;BME280;9776;50.798;6.430;2023-02-22T09:15:33;99808.59;;;11.66;61.34
19286;BME280;9776;50.798;6.430;2023-02-22T09:18:01;99804.78;;;11.84;60.73
19286;BME280;9776;50.798;6.430;2023-02-22T09:20:29;99808.38;;;12.00;60.47
19286;BME280;9776;50.798;6.430;2023-02-22T09:22:56;99803.81;;;12.16;60.17
19286;BME280;9776;50.798;6.430;2023-02-22T09:25:23;99801.56;;;12.36;59.67
19286;BME280;9776;50.798;6.430;2023-02-22T09:27:52;99795.84;;;12.55;59.23
19286;BME280;9776;50.798;6.430;2023-02-22T09:30:23;99799.50;;;12.77;58.74
19286;BME280;9776;50.798;6.430;2023-02-22T09:32:51;99784.84;;;12.89;58.57
19286;BME280;9776;50.798;6.430;2023-02-22T09:35:19;99790.84;;;13.05;57.92
19286;BME280;9776;50.798;6.430;2023-02-22T09:37:51;99791.38;;;13.24;57.76
19286;BME280;9776;50.798;6.430;2023-02-22T09:40:19;99783.50;;;13.53;56.67
19286;BME280;9776;50.798;6.430;2023-02-22T09:43:02;99786.03;;;14.05;55.34
19286;BME280;9776;50.798;6.430;2023-02-22T09:45:35;99786.41;;;14.52;54.74
19286;BME280;9776;50.798;6.430;2023-02-22T09:48:06;99773.38;;;15.21;53.15
19286;BME280;9776;50.798;6.430;2023-02-22T09:50:36;99770.59;;;15.91;51.38
19286;BME280;9776;50.798;6.430;2023-02-22T09:53:06;99771.56;;;16.31;50.54
19286;BME280;9776;50.798;6.430;2023-02-22T09:55:46;99762.94;;;16.16;50.87
19286;BME280;9776;50.798;6.430;2023-02-22T09:58:19;99764.50;;;15.97;51.19
19286;BME280;9776;50.798;6.430;2023-02-22T10:00:51;99770.31;;;15.79;51.54
19286;BME280;9776;50.798;6.430;2023-02-22T10:03:26;99757.03;;;15.79;51.44
19286;BME280;9776;50.798;6.430;2023-02-22T10:05:58;99750.81;;;16.67;49.74
19286;BME280;9776;50.798;6.430;2023-02-22T10:08:28;99754.53;;;18.15;46.51
19286;BME280;9776;50.798;6.430;2023-02-22T10:11:04;99742.69;;;19.55;43.23
19286;BME280;9776;50.798;6.430;2023-02-22T10:13:38;99741.59;;;20.47;41.59
19286;BME280;9776;50.798;6.430;2023-02-22T10:16:19;99740.34;;;20.90;40.59
19286;BME280;9776;50.798;6.430;2023-02-22T10:18:59;99736.81;;;21.31;39.90
19286;BME280;9776;50.798;6.430;2023-02-22T10:21:37;99736.66;;;21.96;38.76
19286;BME280;9776;50.798;6.430;2023-02-22T10:24:13;99734.13;;;22.46;37.74
19286;BME280;9776;50.798;6.430;2023-02-22T10:26:44;99729.41;;;22.65;37.24
19286;BME280;9776;50.798;6.430;2023-02-22T10:29:21;99730.06;;;22.60;37.28
19286;BME280;9776;50.798;6.430;2023-02-22T10:31:55;99735.78;;;22.92;36.55
19286;BME280;9776;50.798;6.430;2023-02-22T10:34:26;99735.94;;;23.18;36.03
19286;BME280;9776;50.798;6.430;2023-02-22T10:36:58;99731.94;;;23.54;35.26
19286;BME280;9776;50.798;6.430;2023-02-22T10:39:31;99738.25;;;23.43;35.29
19286;BME280;9776;50.798;6.430;2023-02-22T10:42:01;99741.84;;;23.70;34.70
19286;BME280;9776;50.798;6.430;2023-02-22T10:44:31;99733.63;;;24.20;34.08
19286;BME280;9776;50.798;6.430;2023-02-22T10:47:01;99729.47;;;24.61;33.38
19286;BME280;9776;50.798;6.430;2023-02-22T10:49:34;99728.47;;;24.67;32.91
19286;BME280;9776;50.798;6.430;2023-02-22T10:52:03;99730.63;;;24.70;33.05
19286;BME280;9776;50.798;6.430;2023-02-22T10:54:39;99723.47;;;24.54;33.06
19286;BME280;9776;50.798;6.430;2023-02-22T10:57:08;99727.09;;;24.16;33.74
19286;BME280;9776;50.798;6.430;2023-02-22T10:59:38;99719.19;;;24.10;33.60
19286;BME280;9776;50.798;6.430;2023-02-22T11:02:17;99719.69;;;24.07;33.43
19286;BME280;9776;50.798;6.430;2023-02-22T11:04:47;99716.19;;;24.06;33.67
19286;BME280;9776;50.798;6.430;2023-02-22T11:07:21;99710.78;;;23.85;33.58
19286;BME280;9776;50.798;6.430;2023-02-22T11:09:50;99708.78;;;23.97;33.57
19286;BME280;9776;50.798;6.430;2023-02-22T11:12:20;99706.56;;;24.37;33.08
19286;BME280;9776;50.798;6.430;2023-02-22T11:14:47;99707.56;;;24.58;32.65
19286;BME280;9776;50.798;6.430;2023-02-22T11:17:26;99706.91;;;24.72;32.22
19286;BME280;9776;50.798;6.430;2023-02-22T11:19:54;99701.09;;;25.22;31.66
19286;BME280;9776;50.798;6.430;2023-02-22T11:22:24;99703.31;;;25.67;31.03
19286;BME280;9776;50.798;6.430;2023-02-22T11:24:55;99696.66;;;25.95;30.36
19286;BME280;9776;50.798;6.430;2023-02-22T11:27:29;99701.38;;;26.35;29.92
19286;BME280;9776;50.798;6.430;2023-02-22T11:30:16;99695.47;;;26.58;29.83
19286;BME280;9776;50.798;6.430;2023-02-22T11:32:47;99703.38;;;27.05;28.83
19286;BME280;9776;50.798;6.430;2023-02-22T11:35:18;99690.13;;;26.93;28.72
19286;BME280;9776;50.798;6.430;2023-02-22T11:37:45;99688.69;;;26.35;29.26
19286;BME280;9776;50.798;6.430;2023-02-22T11:40:15;99694.91;;;26.31;29.28
19286;BME280;9776;50.798;6.430;2023-02-22T11:42:44;99690.69;;;25.83;29.68
19286;BME280;9776;50.798;6.430;2023-02-22T11:45:14;99695.22;;;25.77;29.46
19286;BME280;9776;50.798;6.430;2023-02-22T11:47:54;99685.63;;;26.12;29.32
19286;BME280;9776;50.798;6.430;2023-02-22T11:50:26;99695.47;;;26.53;28.48
19286;BME280;9776;50.798;6.430;2023-02-22T11:53:04;99693.38;;;26.80;28.68
19286;BME280;9776;50.798;6.430;2023-02-22T11:55:38;99692.78;;;27.29;27.78
19286;BME280;9776;50.798;6.430;2023-02-22T11:58:21;99694.41;;;27.50;27.68
19286;BME280;9776;50.798;6.430;2023-02-22T12:00:55;99693.34;;;27.26;28.19
19286;BME280;9776;50.798;6.430;2023-02-22T12:03:35;99690.63;;;27.21;27.85
19286;BME280;9776;50.798;6.430;2023-02-22T12:06:21;99688.47;;;27.18;28.38
19286;BME280;9776;50.798;6.430;2023-02-22T12:09:00;99680.28;;;27.58;27.83
19286;BME280;9776;50.798;6.430;2023-02-22T12:11:36;99683.00;;;27.53;27.81
19286;BME280;9776;50.798;6.430;2023-02-22T12:14:16;99673.22;;;27.57;27.47
19286;BME280;9776;50.798;6.430;2023-02-22T12:19:46;99675.97;;;26.41;28.69
19286;BME280;9776;50.798;6.430;2023-02-22T12:22:17;99673.81;;;26.43;28.89
19286;BME280;9776;50.798;6.430;2023-02-22T12:24:48;99667.31;;;26.39;28.74
19286;BME280;9776;50.798;6.430;2023-02-22T12:27:22;99671.47;;;25.89;29.62
19286;BME280;9776;50.798;6.430;2023-02-22T12:29:54;99673.13;;;25.38;30.34
19286;BME280;9776;50.798;6.430;2023-02-22T12:32:28;99670.03;;;25.20;30.61
19286;BME280;9776;50.798;6.430;2023-02-22T12:35:02;99675.81;;;25.85;30.22
19286;BME280;9776;50.798;6.430;2023-02-22T12:37:46;99680.78;;;26.14;29.53
19286;BME280;9776;50.798;6.430;2023-02-22T12:40:20;99679.13;;;26.13;29.66
19286;BME280;9776;50.798;6.430;2023-02-22T12:42:56;99668.63;;;25.54;30.38
19286;BME280;9776;50.798;6.430;2023-02-22T12:45:29;99677.94;;;25.78;30.14
19286;BME280;9776;50.798;6.430;2023-02-22T12:48:07;99679.38;;;26.06;29.67
19286;BME280;9776;50.798;6.430;2023-02-22T12:50:45;99679.59;;;25.89;29.83
19286;BME280;9776;50.798;6.430;2023-02-22T12:53:17;99685.84;;;25.43;30.92
19286;BME280;9776;50.798;6.430;2023-02-22T12:55:50;99683.38;;;25.36;30.95
19286;BME280;9776;50.798;6.430;2023-02-22T12:58:20;99676.53;;;25.24;31.07
19286;BME280;9776;50.798;6.430;2023-02-22T13:00:55;99678.84;;;25.05;31.46
19286;BME280;9776;50.798;6.430;2023-02-22T13:03:32;99676.31;;;24.94;31.51
19286;BME280;9776;50.798;6.430;2023-02-22T13:06:12;99680.41;;;24.64;31.67
19286;BME280;9776;50.798;6.430;2023-02-22T13:08:47;99677.72;;;24.38;32.28
19286;BME280;9776;50.798;6.430;2023-02-22T13:11:26;99673.22;;;24.21;32.58
19286;BME280;9776;50.798;6.430;2023-02-22T13:14:06;99669.53;;;24.59;32.25
19286;BME280;9776;50.798;6.430;2023-02-22T13:16:44;99677.22;;;25.04;31.74
19286;BME280;9776;50.798;6.430;2023-02-22T13:19:25;99674.38;;;25.21;31.89
19286;BME280;9776;50.798;6.430;2023-02-22T13:22:01;99671.38;;;25.22;31.47
19286;BME280;9776;50.798;6.430;2023-02-22T13:24:48;99666.63;;;24.66;32.20
19286;BME280;9776;50.798;6.430;2023-02-22T13:27:21;99665.63;;;24.18;32.84
19286;BME280;9776;50.798;6.430;2023-02-22T13:29:53;99677.25;;;23.76;33.43
19286;BME280;9776;50.798;6.430;2023-02-22T13:32:40;99663.78;;;23.37;34.02
19286;BME280;9776;50.798;6.430;2023-02-22T13:35:42;99660.28;;;23.37;34.05
19286;BME280;9776;50.798;6.430;2023-02-22T13:38:39;99649.50;;;23.37;34.12
19286;BME280;9776;50.798;6.430;2023-02-22T13:41:36;99663.09;;;23.25;34.21